createdAt,value
2018-05-24T00:01:12.672Z,13.90
2018-05-24T00:03:40.978Z,13.90
2018-05-24T00:06:08.541Z,13.90
2018-05-24T00:08:36.090Z,13.90
2018-05-24T00:11:03.927Z,13.80
2018-05-24T00:13:32.246Z,13.70
2018-05-24T00:15:59.806Z,13.70
2018-05-24T00:18:27.361Z,13.70
2018-05-24T00:20:54.946Z,13.70
2018-05-24T00:23:22.506Z,13.70
2018-05-24T00:25:50.092Z,13.60
2018-05-24T00:28:18.411Z,13.60
2018-05-24T00:30:45.972Z,13.60
2018-05-24T00:33:13.514Z,13.60
2018-05-24T00:35:41.125Z,13.60
2018-05-24T00:38:08.671Z,13.60
2018-05-24T00:40:36.232Z,13.60
2018-05-24T00:43:03.784Z,13.60
2018-05-24T00:45:31.340Z,13.60
2018-05-24T00:47:59.430Z,13.60
2018-05-24T00:50:26.970Z,13.50
2018-05-24T00:52:54.548Z,13.50
2018-05-24T00:55:46.004Z,13.50
2018-05-24T00:58:14.788Z,13.50
2018-05-24T01:00:43.108Z,13.50
2018-05-24T01:03:10.650Z,13.40
2018-05-24T01:05:38.191Z,13.50
2018-05-24T01:08:05.756Z,13.50
2018-05-24T01:10:33.287Z,13.50
2018-05-24T01:13:01.612Z,13.50
2018-05-24T01:15:29.175Z,13.40
2018-05-24T01:17:56.751Z,13.40
2018-05-24T01:20:24.348Z,13.40
2018-05-24T01:22:52.671Z,13.40
2018-05-24T01:25:20.200Z,13.40
2018-05-24T01:27:47.760Z,13.30
2018-05-24T01:30:15.305Z,13.30
2018-05-24T01:32:42.891Z,13.30
2018-05-24T01:35:10.442Z,13.30
2018-05-24T01:37:50.707Z,13.40
2018-05-24T01:40:18.273Z,13.40
2018-05-24T01:42:45.848Z,13.50
2018-05-24T01:45:13.399Z,13.50
2018-05-24T01:47:40.978Z,13.40
2018-05-24T01:50:08.527Z,13.40
2018-05-24T01:52:36.104Z,13.40
2018-05-24T01:55:03.725Z,13.40
2018-05-24T01:57:31.296Z,13.40
2018-05-24T01:59:58.846Z,13.50
2018-05-24T02:02:26.411Z,13.40
2018-05-24T02:04:53.972Z,13.50
2018-05-24T02:07:21.542Z,13.50
2018-05-24T02:09:49.094Z,13.50
2018-05-24T02:12:16.668Z,13.60
2018-05-24T02:14:44.219Z,13.50
2018-05-24T02:17:11.804Z,13.60
2018-05-24T02:19:40.164Z,13.60
2018-05-24T02:22:07.754Z,13.60
2018-05-24T02:24:36.164Z,13.60
2018-05-24T02:27:03.777Z,13.60
2018-05-24T02:29:32.143Z,13.60
2018-05-24T02:31:59.772Z,13.60
2018-05-24T02:34:27.333Z,13.60
2018-05-24T02:36:54.953Z,13.70
2018-05-24T02:39:22.513Z,13.70
2018-05-24T02:41:50.168Z,13.70
2018-05-24T02:44:17.725Z,13.70
2018-05-24T02:46:47.322Z,13.70
2018-05-24T02:49:15.648Z,13.70
2018-05-24T02:51:43.222Z,13.70
2018-05-24T02:54:10.829Z,13.70
2018-05-24T02:56:38.468Z,13.70
2018-05-24T02:59:06.063Z,13.70
2018-05-24T03:01:33.836Z,13.70
2018-05-24T03:04:01.337Z,13.70
2018-05-24T03:06:29.725Z,13.70
2018-05-24T03:08:57.293Z,13.70
2018-05-24T03:11:25.703Z,13.70
2018-05-24T03:13:53.249Z,13.70
2018-05-24T03:16:20.812Z,13.70
2018-05-24T03:18:48.447Z,13.70
2018-05-24T03:21:16.752Z,13.60
2018-05-24T03:23:44.368Z,13.60
2018-05-24T03:26:12.749Z,13.60
2018-05-24T03:28:40.410Z,13.60
2018-05-24T03:31:08.789Z,13.60
2018-05-24T03:33:36.405Z,13.60
2018-05-24T03:36:04.029Z,13.60
2018-05-24T03:38:32.363Z,13.50
2018-05-24T03:40:59.904Z,13.50
2018-05-24T03:43:27.495Z,13.50
2018-05-24T03:45:55.036Z,13.50
2018-05-24T03:48:22.641Z,13.50
2018-05-24T03:50:50.978Z,13.50
2018-05-24T03:53:18.543Z,13.50
2018-05-24T03:55:46.086Z,13.50
2018-05-24T03:58:13.648Z,13.50
2018-05-24T04:00:53.157Z,13.60
2018-05-24T04:03:32.627Z,13.60
2018-05-24T04:06:00.167Z,13.60
2018-05-24T04:08:27.744Z,13.70
2018-05-24T04:10:55.290Z,13.70
2018-05-24T04:13:22.846Z,13.80
2018-05-24T04:15:50.419Z,13.80
2018-05-24T04:18:17.972Z,13.80
2018-05-24T04:20:45.997Z,13.90
2018-05-24T04:23:14.399Z,14.00
2018-05-24T04:25:41.908Z,14.00
2018-05-24T04:28:09.475Z,14.20
2018-05-24T04:30:37.020Z,14.30
2018-05-24T04:33:05.633Z,14.30
2018-05-24T04:35:33.177Z,14.40
2018-05-24T04:38:00.756Z,14.50
2018-05-24T04:40:28.315Z,14.50
2018-05-24T04:42:56.644Z,14.50
2018-05-24T04:45:24.289Z,14.50
2018-05-24T04:47:51.820Z,14.60
2018-05-24T04:50:19.436Z,14.70
2018-05-24T04:52:47.034Z,14.80
2018-05-24T04:55:14.620Z,14.80
2018-05-24T04:57:42.178Z,14.90
2018-05-24T05:00:09.797Z,15.00
2018-05-24T05:02:38.112Z,15.20
2018-05-24T05:05:05.757Z,15.20
2018-05-24T05:07:33.312Z,15.30
2018-05-24T05:10:00.896Z,15.40
2018-05-24T05:12:28.434Z,15.50
2018-05-24T05:14:55.992Z,15.60
2018-05-24T05:17:23.523Z,15.80
2018-05-24T05:19:51.849Z,16.30
2018-05-24T05:22:19.392Z,16.30
2018-05-24T05:24:46.939Z,16.50
2018-05-24T05:27:14.481Z,16.80
2018-05-24T05:29:42.801Z,17.10
2018-05-24T05:32:10.332Z,17.00
2018-05-24T05:37:06.681Z,17.20
2018-05-24T05:39:34.227Z,17.30
2018-05-24T05:42:04.451Z,17.40
2018-05-24T05:44:32.768Z,17.40
2018-05-24T05:47:00.295Z,17.40
2018-05-24T05:49:27.851Z,17.50
2018-05-24T05:51:55.464Z,17.40
2018-05-24T05:54:22.972Z,17.50
2018-05-24T05:56:50.535Z,17.40
2018-05-24T05:59:18.067Z,17.10
2018-05-24T06:01:46.430Z,16.70
2018-05-24T06:04:13.961Z,16.70
2018-05-24T06:06:41.491Z,16.60
2018-05-24T06:09:09.048Z,16.50
2018-05-24T06:11:36.576Z,16.50
2018-05-24T06:14:04.914Z,16.40
2018-05-24T06:16:32.465Z,16.40
2018-05-24T06:19:00.036Z,16.40
2018-05-24T06:21:27.629Z,16.40
2018-05-24T06:23:55.148Z,16.30
2018-05-24T06:26:22.684Z,16.30
2018-05-24T06:28:50.259Z,16.30
2018-05-24T06:31:17.796Z,16.30
2018-05-24T06:33:45.432Z,16.40
2018-05-24T06:36:12.981Z,16.50
2018-05-24T06:38:41.316Z,16.70
2018-05-24T06:41:08.855Z,16.70
2018-05-24T06:43:36.409Z,16.90
2018-05-24T06:46:03.939Z,17.10
2018-05-24T06:48:32.314Z,17.40
2018-05-24T06:51:00.694Z,17.60
2018-05-24T06:53:29.032Z,17.60
2018-05-24T06:55:56.571Z,17.60
2018-05-24T06:58:24.104Z,17.80
2018-05-24T07:00:51.664Z,18.10
2018-05-24T07:03:19.193Z,18.20
2018-05-24T07:05:46.758Z,18.40
2018-05-24T07:08:15.058Z,18.70
2018-05-24T07:10:42.607Z,18.70
2018-05-24T07:13:10.904Z,18.90
2018-05-24T07:15:38.458Z,18.90
2018-05-24T07:18:05.991Z,18.90
2018-05-24T07:20:34.320Z,18.70
2018-05-24T07:23:14.690Z,18.80
2018-05-24T07:25:42.244Z,18.60
2018-05-24T07:28:09.763Z,18.70
2018-05-24T07:30:37.308Z,18.80
2018-05-24T07:33:05.608Z,18.80
2018-05-24T07:35:33.155Z,18.80
2018-05-24T07:38:00.697Z,18.70
2018-05-24T07:40:29.019Z,18.90
2018-05-24T07:42:56.539Z,18.90
2018-05-24T07:45:24.093Z,19.00
2018-05-24T07:47:52.378Z,19.20
2018-05-24T07:50:19.935Z,19.20
2018-05-24T07:52:47.475Z,19.30
2018-05-24T07:55:15.814Z,19.60
2018-05-24T07:57:43.362Z,19.60
2018-05-24T08:00:10.892Z,19.70
2018-05-24T08:02:38.451Z,19.60
2018-05-24T08:05:05.984Z,19.40
2018-05-24T08:07:34.304Z,19.40
2018-05-24T08:10:01.836Z,19.40
2018-05-24T08:12:30.147Z,19.80
2018-05-24T08:14:57.676Z,19.70
2018-05-24T08:17:25.220Z,19.90
2018-05-24T08:19:53.507Z,19.80
2018-05-24T08:22:21.055Z,19.80
2018-05-24T08:24:49.347Z,19.70
2018-05-24T08:27:17.572Z,19.70
2018-05-24T08:29:45.108Z,19.70
2018-05-24T08:32:12.668Z,19.60
2018-05-24T08:34:40.206Z,19.50
2018-05-24T08:37:07.760Z,19.40
2018-05-24T08:39:35.327Z,19.20
2018-05-24T08:42:02.861Z,18.90
2018-05-24T08:44:31.175Z,19.00
2018-05-24T08:46:58.731Z,19.00
2018-05-24T08:49:26.287Z,19.10
2018-05-24T08:51:53.827Z,19.00
2018-05-24T08:54:21.420Z,19.10
2018-05-24T08:56:48.948Z,19.20
2018-05-24T08:59:16.496Z,19.40
2018-05-24T09:01:44.028Z,19.40
2018-05-24T09:04:11.592Z,19.50
2018-05-24T09:06:39.895Z,19.30
2018-05-24T09:09:07.491Z,19.30
2018-05-24T09:11:35.072Z,19.30
2018-05-24T09:14:02.567Z,19.30
2018-05-24T09:16:30.090Z,19.20
2018-05-24T09:18:57.639Z,19.30
2018-05-24T09:21:25.168Z,19.40
2018-05-24T09:23:52.720Z,19.50
2018-05-24T09:26:20.269Z,19.50
2018-05-24T09:28:47.805Z,19.60
2018-05-24T09:31:16.123Z,19.90
2018-05-24T09:33:43.647Z,19.90
2018-05-24T09:36:11.209Z,19.70
2018-05-24T09:38:38.731Z,19.80
2018-05-24T09:41:06.283Z,19.90
2018-05-24T09:43:33.811Z,19.80
2018-05-24T09:46:01.357Z,19.90
2018-05-24T09:48:28.899Z,19.90
2018-05-24T09:50:56.443Z,19.90
2018-05-24T09:53:24.739Z,19.70
2018-05-24T09:55:52.304Z,19.70
2018-05-24T09:58:19.833Z,19.70
2018-05-24T10:00:48.148Z,19.50
2018-05-24T10:03:15.676Z,19.50
2018-05-24T10:05:43.989Z,19.70
2018-05-24T10:08:11.519Z,19.70
2018-05-24T10:10:39.082Z,19.70
2018-05-24T10:13:06.607Z,20.00
2018-05-24T10:15:34.151Z,19.90
2018-05-24T10:18:01.675Z,20.00
2018-05-24T10:20:29.195Z,20.10
2018-05-24T10:22:57.513Z,19.80
2018-05-24T10:25:25.045Z,19.80
2018-05-24T10:27:52.595Z,19.60
2018-05-24T10:30:20.891Z,19.40
2018-05-24T10:32:48.664Z,19.30
2018-05-24T10:35:16.205Z,19.50
2018-05-24T10:37:43.770Z,19.60
2018-05-24T10:40:11.296Z,19.60
2018-05-24T10:42:39.631Z,19.70
2018-05-24T10:45:07.247Z,19.70
2018-05-24T10:47:34.760Z,19.80
2018-05-24T10:50:02.307Z,19.90
2018-05-24T10:52:29.857Z,19.90
2018-05-24T10:54:57.421Z,20.00
2018-05-24T10:57:24.971Z,20.30
2018-05-24T10:59:52.499Z,20.20
2018-05-24T11:02:20.051Z,20.10
2018-05-24T11:04:48.339Z,20.70
2018-05-24T11:07:15.878Z,20.70
2018-05-24T11:09:44.171Z,21.40
2018-05-24T11:12:11.727Z,21.30
2018-05-24T11:14:40.020Z,21.90
2018-05-24T11:17:07.780Z,21.80
2018-05-24T11:19:35.303Z,21.90
2018-05-24T11:22:02.856Z,21.60
2018-05-24T11:24:30.389Z,21.40
2018-05-24T11:26:57.907Z,21.50
2018-05-24T11:29:25.491Z,21.20
2018-05-24T11:31:53.091Z,20.90
2018-05-24T11:34:20.581Z,20.80
2018-05-24T11:36:48.117Z,20.90
2018-05-24T11:39:16.432Z,21.30
2018-05-24T11:41:44.596Z,21.30
2018-05-24T11:44:12.177Z,21.50
2018-05-24T11:46:39.702Z,21.60
2018-05-24T11:49:07.257Z,21.90
2018-05-24T11:51:34.807Z,22.30
2018-05-24T11:54:03.128Z,23.30
2018-05-24T11:56:30.663Z,23.30
2018-05-24T11:58:58.214Z,23.20
2018-05-24T12:01:25.744Z,23.60
2018-05-24T12:03:53.287Z,23.60
2018-05-24T12:06:20.812Z,23.70
2018-05-24T12:08:48.356Z,23.90
2018-05-24T12:11:15.891Z,23.50
2018-05-24T12:13:44.217Z,22.90
2018-05-24T12:16:11.751Z,22.80
2018-05-24T12:18:39.291Z,23.10
2018-05-24T12:21:07.603Z,23.50
2018-05-24T12:23:35.132Z,23.50
2018-05-24T12:26:02.696Z,24.10
2018-05-24T12:28:30.238Z,23.60
2018-05-24T12:30:58.564Z,23.90
2018-05-24T12:33:26.102Z,23.90
2018-05-24T12:35:53.660Z,24.20
2018-05-24T12:38:21.191Z,24.20
2018-05-24T12:40:48.771Z,24.80
2018-05-24T12:43:16.326Z,24.70
2018-05-24T12:45:43.883Z,25.40
2018-05-24T12:48:11.418Z,25.80
2018-05-24T12:50:39.740Z,26.40
2018-05-24T12:53:07.270Z,26.40
2018-05-24T12:55:34.828Z,27.20
2018-05-24T12:58:02.359Z,27.60
2018-05-24T13:00:29.989Z,27.80
2018-05-24T13:02:57.518Z,27.50
2018-05-24T13:05:25.053Z,27.00
2018-05-24T13:07:53.366Z,26.40
2018-05-24T13:10:21.683Z,25.90
2018-05-24T13:12:49.241Z,25.90
2018-05-24T13:15:16.776Z,25.40
2018-05-24T13:17:44.437Z,25.10
2018-05-24T13:20:11.972Z,24.60
2018-05-24T13:22:39.535Z,24.80
2018-05-24T13:25:07.067Z,24.50
2018-05-24T13:27:34.625Z,24.60
2018-05-24T13:30:02.159Z,24.80
2018-05-24T13:32:41.500Z,24.80
2018-05-24T13:35:09.849Z,25.20
2018-05-24T13:37:37.403Z,25.20
2018-05-24T13:40:04.931Z,25.30
2018-05-24T13:42:32.479Z,25.40
2018-05-24T13:45:00.010Z,25.30
2018-05-24T13:47:28.327Z,25.40
2018-05-24T13:49:55.872Z,25.40
2018-05-24T13:52:23.425Z,25.30
2018-05-24T13:54:50.960Z,25.10
2018-05-24T13:57:31.187Z,24.70
2018-05-24T13:59:58.713Z,24.70
2018-05-24T14:02:26.273Z,24.80
2018-05-24T14:04:53.807Z,24.80
2018-05-24T14:07:22.131Z,23.60
2018-05-24T14:09:49.658Z,23.60
2018-05-24T14:12:17.192Z,23.50
2018-05-24T14:14:46.324Z,23.40
2018-05-24T14:17:13.858Z,23.40
2018-05-24T14:19:41.402Z,23.50
2018-05-24T14:22:09.738Z,23.10
2018-05-24T14:24:37.283Z,23.10
2018-05-24T14:27:04.807Z,23.20
2018-05-24T14:29:32.364Z,23.40
2018-05-24T14:32:00.659Z,23.80
2018-05-24T14:34:28.211Z,23.80
2018-05-24T14:36:55.736Z,24.10
2018-05-24T14:39:23.295Z,24.40
2018-05-24T14:41:51.589Z,23.50
2018-05-24T14:44:19.913Z,23.20
2018-05-24T14:46:47.448Z,23.20
2018-05-24T14:49:14.990Z,23.10
2018-05-24T14:51:42.510Z,22.70
2018-05-24T14:54:10.050Z,22.40
2018-05-24T14:56:37.579Z,22.40
2018-05-24T14:59:05.127Z,22.50
2018-05-24T15:01:32.655Z,22.80
2018-05-24T15:04:00.209Z,23.00
2018-05-24T15:06:27.744Z,23.20
2018-05-24T15:08:55.305Z,23.50
2018-05-24T15:11:22.831Z,23.80
2018-05-24T15:13:51.266Z,23.90
2018-05-24T15:16:19.571Z,24.00
2018-05-24T15:18:47.128Z,24.00
2018-05-24T15:21:14.655Z,24.00
2018-05-24T15:23:42.189Z,24.10
2018-05-24T15:26:09.739Z,24.10
2018-05-24T15:28:37.282Z,24.70
2018-05-24T15:31:04.862Z,25.10
2018-05-24T15:33:32.407Z,25.50
2018-05-24T15:35:59.946Z,25.50
2018-05-24T15:38:27.501Z,25.60
2018-05-24T15:40:55.028Z,25.40
2018-05-24T15:43:23.348Z,24.60
2018-05-24T15:45:51.647Z,24.30
2018-05-24T15:48:19.212Z,24.30
2018-05-24T15:50:46.752Z,24.50
2018-05-24T15:53:14.294Z,24.30
2018-05-24T15:55:41.824Z,24.40
2018-05-24T15:58:10.143Z,23.90
2018-05-24T16:00:37.698Z,23.90
2018-05-24T16:03:05.261Z,23.80
2018-05-24T16:05:32.798Z,24.20
2018-05-24T16:08:00.345Z,24.40
2018-05-24T16:10:27.871Z,24.40
2018-05-24T16:12:55.411Z,24.60
2018-05-24T16:15:22.940Z,24.50
2018-05-24T16:17:50.488Z,24.40
2018-05-24T16:20:18.008Z,23.80
2018-05-24T16:22:45.547Z,23.90
2018-05-24T16:25:13.071Z,23.90
2018-05-24T16:27:40.616Z,24.00
2018-05-24T16:30:08.135Z,24.00
2018-05-24T16:32:35.679Z,24.10
2018-05-24T16:35:03.199Z,24.20
2018-05-24T16:37:30.743Z,24.10
2018-05-24T16:39:58.311Z,24.00
2018-05-24T16:42:25.820Z,23.50
2018-05-24T16:44:53.344Z,22.90
2018-05-24T16:47:20.892Z,22.80
2018-05-24T16:49:49.395Z,22.30
2018-05-24T16:52:16.979Z,21.80
2018-05-24T16:54:44.510Z,21.60
2018-05-24T16:57:12.027Z,21.50
2018-05-24T16:59:40.328Z,21.20
2018-05-24T17:02:07.847Z,21.20
2018-05-24T17:04:36.163Z,21.10
2018-05-24T17:07:03.687Z,21.10
2018-05-24T17:09:32.000Z,20.80
2018-05-24T17:12:00.323Z,20.80
2018-05-24T17:14:27.876Z,20.70
2018-05-24T17:16:55.407Z,20.60
2018-05-24T17:19:22.959Z,20.50
2018-05-24T17:21:50.492Z,20.50
2018-05-24T17:24:18.911Z,20.40
2018-05-24T17:26:46.427Z,20.40
2018-05-24T17:29:13.971Z,20.40
2018-05-24T17:31:42.286Z,20.20
2018-05-24T17:34:09.847Z,20.20
2018-05-24T17:36:37.380Z,20.20
2018-05-24T17:39:04.924Z,20.10
2018-05-24T17:41:32.469Z,20.10
2018-05-24T17:44:00.019Z,20.00
2018-05-24T17:46:27.583Z,19.90
2018-05-24T17:48:55.136Z,19.70
2018-05-24T17:51:22.695Z,19.70
2018-05-24T17:53:50.240Z,19.60
2018-05-24T17:56:18.513Z,19.40
2018-05-24T17:58:46.548Z,19.40
2018-05-24T18:01:14.072Z,19.30
2018-05-24T18:03:42.388Z,19.20
2018-05-24T18:06:09.915Z,19.10
2018-05-24T18:08:38.240Z,18.90
2018-05-24T18:11:05.767Z,18.90
2018-05-24T18:13:34.057Z,18.90
2018-05-24T18:16:01.591Z,18.80
2018-05-24T18:18:29.148Z,18.70
2018-05-24T18:20:56.999Z,18.60
2018-05-24T18:23:25.321Z,18.60
2018-05-24T18:25:52.892Z,18.60
2018-05-24T18:28:20.435Z,18.50
2018-05-24T18:30:47.964Z,18.50
2018-05-24T18:33:15.511Z,18.40
2018-05-24T18:35:43.804Z,18.40
2018-05-24T18:38:11.423Z,18.30
2018-05-24T18:40:38.960Z,18.30
2018-05-24T18:43:06.504Z,18.30
2018-05-24T18:45:34.042Z,18.30
2018-05-24T18:48:01.591Z,18.20
2018-05-24T18:50:30.507Z,18.10
2018-05-24T18:52:58.804Z,17.90
2018-05-24T18:55:26.344Z,17.90
2018-05-24T18:57:53.871Z,17.90
2018-05-24T19:00:22.183Z,17.70
2018-05-24T19:02:49.704Z,17.70
2018-05-24T19:05:18.009Z,17.60
2018-05-24T19:07:45.540Z,17.60
2018-05-24T19:10:13.849Z,17.50
2018-05-24T19:12:41.376Z,17.50
2018-05-24T19:15:08.924Z,17.40
2018-05-24T19:17:37.220Z,17.20
2018-05-24T19:20:04.764Z,17.20
2018-05-24T19:22:33.061Z,17.10
2018-05-24T19:25:00.613Z,17.10
2018-05-24T19:27:28.138Z,17.00
2018-05-24T19:29:55.727Z,17.00
2018-05-24T19:32:23.288Z,17.00
2018-05-24T19:34:50.883Z,17.00
2018-05-24T19:37:18.390Z,16.90
2018-05-24T19:39:46.705Z,16.80
2018-05-24T19:42:14.233Z,16.80
2018-05-24T19:44:41.780Z,16.80
2018-05-24T19:47:09.320Z,16.70
2018-05-24T19:49:37.680Z,16.70
2018-05-24T19:52:05.216Z,16.70
2018-05-24T19:54:32.772Z,16.60
2018-05-24T19:57:00.307Z,16.60
2018-05-24T19:59:27.860Z,16.60
2018-05-24T20:01:55.392Z,16.50
2018-05-24T20:04:22.939Z,16.50
2018-05-24T20:06:50.472Z,16.50
2018-05-24T20:09:18.029Z,16.50
2018-05-24T20:11:45.560Z,16.40
2018-05-24T20:14:13.104Z,16.40
2018-05-24T20:16:41.400Z,16.30
2018-05-24T20:19:08.964Z,16.30
2018-05-24T20:21:36.504Z,16.30
2018-05-24T20:24:04.091Z,16.30
2018-05-24T20:26:31.634Z,16.30
2018-05-24T20:28:59.182Z,16.20
2018-05-24T20:31:27.467Z,16.20
2018-05-24T20:33:55.030Z,16.20
2018-05-24T20:36:22.596Z,16.20
2018-05-24T20:38:50.190Z,16.10
2018-05-24T20:41:17.719Z,16.10
2018-05-24T20:43:45.276Z,16.00
2018-05-24T20:46:12.803Z,16.00
2018-05-24T20:48:41.127Z,16.00
2018-05-24T20:51:08.675Z,16.00
2018-05-24T20:53:36.232Z,16.00
2018-05-24T20:56:03.787Z,16.00
2018-05-24T20:58:31.327Z,16.00
2018-05-24T21:00:58.900Z,15.90
2018-05-24T21:03:26.465Z,15.90
2018-05-24T21:05:54.073Z,15.80
2018-05-24T21:08:22.385Z,15.80
2018-05-24T21:10:49.954Z,15.80
2018-05-24T21:13:17.491Z,15.80
2018-05-24T21:15:45.052Z,15.80
2018-05-24T21:18:12.591Z,15.70
2018-05-24T21:20:40.931Z,15.70
2018-05-24T21:23:08.464Z,15.70
2018-05-24T21:25:36.012Z,15.70
2018-05-24T21:28:03.548Z,15.70
2018-05-24T21:30:31.876Z,15.70
2018-05-24T21:32:59.419Z,15.70
2018-05-24T21:35:26.976Z,15.70
2018-05-24T21:37:54.520Z,15.80
2018-05-24T21:40:22.084Z,15.80
2018-05-24T21:42:49.611Z,15.80
2018-05-24T21:45:17.936Z,15.80
2018-05-24T21:47:45.465Z,15.80
2018-05-24T21:50:13.019Z,15.80
2018-05-24T21:52:40.556Z,15.80
2018-05-24T21:55:08.888Z,15.80
2018-05-24T21:57:36.427Z,15.80
2018-05-24T22:00:03.994Z,15.70
2018-05-24T22:02:32.304Z,15.70
2018-05-24T22:04:59.867Z,15.70
2018-05-24T22:07:27.451Z,15.70
2018-05-24T22:09:55.779Z,15.70
2018-05-24T22:12:23.311Z,15.70
2018-05-24T22:14:50.869Z,15.70
2018-05-24T22:17:18.404Z,15.70
2018-05-24T22:19:45.964Z,15.70
2018-05-24T22:22:14.273Z,15.70
2018-05-24T22:24:41.829Z,15.60
2018-05-24T22:27:09.373Z,15.60
2018-05-24T22:29:36.935Z,15.60
2018-05-24T22:32:04.479Z,15.60
2018-05-24T22:34:32.808Z,15.60
2018-05-24T22:37:00.346Z,15.60
2018-05-24T22:39:27.897Z,15.60
2018-05-24T22:41:55.440Z,15.60
2018-05-24T22:44:22.975Z,15.60
2018-05-24T22:46:50.536Z,15.60
2018-05-24T22:49:18.848Z,15.50
2018-05-24T22:51:46.395Z,15.50
2018-05-24T22:54:13.933Z,15.50
2018-05-24T22:56:42.264Z,15.50
2018-05-24T22:59:09.805Z,15.50
2018-05-24T23:01:37.360Z,15.50
2018-05-24T23:04:04.908Z,15.40
2018-05-24T23:06:32.464Z,15.40
2018-05-24T23:09:00.003Z,15.40
2018-05-24T23:11:28.319Z,15.40
2018-05-24T23:13:55.852Z,15.40
2018-05-24T23:16:24.319Z,15.40
2018-05-24T23:18:51.851Z,15.30
2018-05-24T23:21:19.396Z,15.30
2018-05-24T23:23:46.930Z,15.40
2018-05-24T23:26:14.479Z,15.30
2018-05-24T23:28:42.043Z,15.30
2018-05-24T23:31:09.638Z,15.30
2018-05-24T23:33:37.144Z,15.30
2018-05-24T23:36:04.700Z,15.30
2018-05-24T23:38:32.261Z,15.30
2018-05-24T23:41:00.576Z,15.20
2018-05-24T23:43:28.118Z,15.20
2018-05-24T23:45:55.700Z,15.20
2018-05-24T23:48:23.225Z,15.10
2018-05-24T23:50:50.778Z,15.10
2018-05-24T23:53:18.312Z,15.10
2018-05-24T23:55:45.859Z,15.00
2018-05-24T23:58:13.400Z,15.00
